Time,TemperatureF,DewpointF,PressureIn,WindDirection,WindDirectionDegrees,WindSpeedMPH,WindSpeedGustMPH,Humidity,HourlyPrecipIn,Conditions,Clouds,dailyrainin,SoftwareType,DateUTC
2013-02-13 00:02:00,66.0,62.0,29.97,SSW,203,0.0,0.0,86,0.00,,,0.00,,2013-02-13 06:02:00,
2013-02-13 00:11:00,66.0,62.0,29.96,SSW,203,0.0,0.0,86,0.00,,,0.00,,2013-02-13 06:11:00,
2013-02-13 00:21:00,66.0,62.0,29.96,SSW,203,0.0,0.0,86,0.00,,,0.00,,2013-02-13 06:21:00,
2013-02-13 00:32:00,65.0,61.0,29.96,SSW,203,0.0,0.0,86,0.00,,,0.00,,2013-02-13 06:32:00,
2013-02-13 00:42:00,65.0,60.0,29.96,SSW,203,0.0,0.0,85,0.00,,,0.00,,2013-02-13 06:42:00,
2013-02-13 00:51:00,65.0,60.0,29.96,SSW,203,0.0,0.0,85,0.00,,,0.00,,2013-02-13 06:51:00,
2013-02-13 01:02:00,65.0,60.0,29.95,SSW,203,0.0,0.0,85,0.00,,,0.00,,2013-02-13 07:02:00,
2013-02-13 01:11:00,65.0,60.0,29.95,SSW,203,0.0,0.0,85,0.00,,,0.00,,2013-02-13 07:11:00,
2013-02-13 01:22:00,65.0,60.0,29.95,SSW,203,0.0,0.0,85,0.00,,,0.00,,2013-02-13 07:22:00,
2013-02-13 01:32:00,65.0,60.0,29.94,SSW,203,0.0,0.0,85,0.00,,,0.00,,2013-02-13 07:32:00,
2013-02-13 01:42:00,65.0,61.0,29.93,SSW,203,0.0,0.0,86,0.00,,,0.00,,2013-02-13 07:42:00,
2013-02-13 01:52:00,65.0,61.0,29.93,SSW,203,0.0,0.0,86,0.00,,,0.00,,2013-02-13 07:52:00,
2013-02-13 02:01:00,65.0,61.0,29.93,SSW,203,0.0,0.0,87,0.00,,,0.00,,2013-02-13 08:01:00,
2013-02-13 02:11:00,65.0,61.0,29.93,SSW,203,0.0,0.0,86,0.00,,,0.00,,2013-02-13 08:11:00,
2013-02-13 02:21:00,65.0,61.0,29.93,SSW,203,0.0,0.0,86,0.00,,,0.00,,2013-02-13 08:21:00,
2013-02-13 02:32:00,65.0,61.0,29.93,SSW,203,0.0,0.0,87,0.00,,,0.00,,2013-02-13 08:32:00,
2013-02-13 02:43:00,65.0,61.0,29.93,SSW,203,0.0,0.0,87,0.00,,,0.00,,2013-02-13 08:43:00,
2013-02-13 02:52:00,66.0,62.0,29.93,SSW,203,0.0,0.0,87,0.00,,,0.00,,2013-02-13 08:52:00,
2013-02-13 03:02:00,65.0,61.0,29.93,SSW,203,0.0,1.0,87,0.00,,,0.00,,2013-02-13 09:02:00,
2013-02-13 03:11:00,65.0,61.0,29.93,SSW,203,0.0,0.0,87,0.00,,,0.00,,2013-02-13 09:11:00,
2013-02-13 03:21:00,65.0,61.0,29.93,SSW,203,0.0,0.0,87,0.00,,,0.00,,2013-02-13 09:21:00,
2013-02-13 03:32:00,66.0,62.0,29.93,SSW,203,0.0,0.0,87,0.00,,,0.00,,2013-02-13 09:32:00,
2013-02-13 03:42:00,66.0,62.0,29.93,SSW,203,0.0,0.0,87,0.00,,,0.00,,2013-02-13 09:42:00,
2013-02-13 03:51:00,66.0,62.0,29.93,SSW,203,0.0,0.0,87,0.00,,,0.00,,2013-02-13 09:51:00,
2013-02-13 04:01:00,66.0,62.0,29.93,SSW,203,0.0,0.0,87,0.00,,,0.00,,2013-02-13 10:01:00,
2013-02-13 04:11:00,67.0,63.0,29.93,SSW,203,0.0,0.0,87,0.00,,,0.00,,2013-02-13 10:11:00,
2013-02-13 04:21:00,67.0,63.0,29.93,SSW,203,0.0,0.0,87,0.00,,,0.00,,2013-02-13 10:21:00,
2013-02-13 04:32:00,67.0,63.0,29.93,SSW,203,0.0,0.0,87,0.00,,,0.00,,2013-02-13 10:32:00,
2013-02-13 04:42:00,68.0,64.0,29.93,SSW,203,0.0,0.0,87,0.00,,,0.00,,2013-02-13 10:42:00,
2013-02-13 04:52:00,68.0,64.0,29.93,SSW,203,0.0,0.0,87,0.00,,,0.00,,2013-02-13 10:52:00,
2013-02-13 05:01:00,68.0,64.0,29.93,SSW,203,0.0,0.0,87,0.00,,,0.00,,2013-02-13 11:01:00,
2013-02-13 05:11:00,68.0,64.0,29.93,SSW,203,0.0,0.0,87,0.00,,,0.00,,2013-02-13 11:11:00,
2013-02-13 05:22:00,68.0,64.0,29.93,SSW,203,0.0,0.0,87,0.00,,,0.00,,2013-02-13 11:22:00,
2013-02-13 05:32:00,69.0,65.0,29.93,SSW,203,1.0,1.0,87,0.00,,,0.00,,2013-02-13 11:32:00,
2013-02-13 05:42:00,70.0,66.0,29.93,SSW,203,1.0,2.0,86,0.00,,,0.00,,2013-02-13 11:42:00,
2013-02-13 05:52:00,70.0,66.0,29.93,SSW,203,1.0,2.0,86,0.00,,,0.00,,2013-02-13 11:52:00,
2013-02-13 06:02:00,70.0,66.0,29.93,SSW,203,1.0,2.0,86,0.00,,,0.00,,2013-02-13 12:02:00,
2013-02-13 06:11:00,70.0,66.0,29.93,SSW,203,1.0,2.0,86,0.00,,,0.00,,2013-02-13 12:11:00,
2013-02-13 06:22:00,70.0,66.0,29.93,SSW,203,1.0,2.0,86,0.00,,,0.00,,2013-02-13 12:22:00,
2013-02-13 06:32:00,71.0,67.0,29.94,SSW,208,2.0,3.0,86,0.00,,,0.00,,2013-02-13 12:32:00,
2013-02-13 06:42:00,72.0,68.0,29.94,SSW,203,1.0,2.0,86,0.00,,,0.00,,2013-02-13 12:42:00,
2013-02-13 06:52:00,72.0,68.0,29.94,SSW,203,1.0,2.0,86,0.00,,,0.00,,2013-02-13 12:52:00,
2013-02-13 07:02:00,72.0,68.0,29.94,SSW,203,2.0,3.0,86,0.00,,,0.00,,2013-02-13 13:02:00,
2013-02-13 07:11:00,72.0,68.0,29.95,SSW,203,0.0,2.0,86,0.00,,,0.00,,2013-02-13 13:11:00,
2013-02-13 07:21:00,72.0,68.0,29.95,SSW,203,0.0,2.0,86,0.00,,,0.00,,2013-02-13 13:21:00,
2013-02-13 07:32:00,73.0,69.0,29.95,SW,219,2.0,2.0,86,0.00,,,0.00,,2013-02-13 13:32:00,
2013-02-13 07:42:00,73.0,69.0,29.95,SSW,203,2.0,3.0,87,0.00,,,0.00,,2013-02-13 13:42:00,
2013-02-13 07:51:00,73.0,69.0,29.95,SSW,203,2.0,3.0,87,0.00,,,0.00,,2013-02-13 13:51:00,
2013-02-13 08:01:00,74.0,70.0,29.96,SSW,203,2.0,3.0,87,0.00,,,0.00,,2013-02-13 14:01:00,
2013-02-13 08:11:00,75.0,71.0,29.96,SW,227,2.0,3.0,87,0.00,,,0.00,,2013-02-13 14:11:00,
2013-02-13 08:21:00,75.0,71.0,29.96,SW,227,2.0,3.0,87,0.00,,,0.00,,2013-02-13 14:21:00,
2013-02-13 08:32:00,76.0,72.0,29.97,SSW,206,2.0,3.0,86,0.00,,,0.00,,2013-02-13 14:32:00,
2013-02-13 08:42:00,76.0,71.0,29.97,SW,214,1.0,2.0,85,0.00,,,0.00,,2013-02-13 14:42:00,
2013-02-13 08:52:00,76.0,71.0,29.97,SW,214,1.0,2.0,85,0.00,,,0.00,,2013-02-13 14:52:00,
2013-02-13 09:02:00,78.0,72.0,29.98,SSW,203,2.0,3.0,83,0.00,,,0.00,,2013-02-13 15:02:00,
2013-02-13 09:11:00,79.0,73.0,29.98,SW,217,2.0,3.0,82,0.00,,,0.00,,2013-02-13 15:11:00,
2013-02-13 09:21:00,79.0,73.0,29.98,SW,217,2.0,3.0,82,0.00,,,0.00,,2013-02-13 15:21:00,
2013-02-13 09:32:00,80.0,73.0,29.98,SW,232,4.0,5.0,80,0.00,,,0.00,,2013-02-13 15:32:00,
2013-02-13 09:42:00,80.0,73.0,29.98,SW,232,4.0,5.0,80,0.00,,,0.00,,2013-02-13 15:42:00,
2013-02-13 09:51:00,80.0,73.0,29.98,SW,232,4.0,5.0,80,0.00,,,0.00,,2013-02-13 15:51:00,
2013-02-13 10:01:00,80.0,73.0,29.98,SW,232,4.0,5.0,80,0.00,,,0.00,,2013-02-13 16:01:00,
2013-02-13 10:11:00,81.0,72.0,29.98,SW,233,3.0,7.0,75,0.00,,,0.00,,2013-02-13 16:11:00,
2013-02-13 10:21:00,81.0,72.0,29.98,SW,233,3.0,7.0,75,0.00,,,0.00,,2013-02-13 16:21:00,
2013-02-13 10:32:00,82.0,73.0,29.98,South,180,3.0,4.0,75,0.00,,,0.00,,2013-02-13 16:32:00,
2013-02-13 10:42:00,82.0,73.0,29.98,South,180,3.0,4.0,75,0.00,,,0.00,,2013-02-13 16:42:00,
2013-02-13 10:52:00,81.0,72.0,29.97,South,180,3.0,7.0,75,0.00,,,0.00,,2013-02-13 16:52:00,
2013-02-13 11:01:00,81.0,72.0,29.97,South,180,3.0,7.0,75,0.00,,,0.00,,2013-02-13 17:01:00,
2013-02-13 11:11:00,81.0,72.0,29.97,South,180,3.0,7.0,75,0.00,,,0.00,,2013-02-13 17:11:00,
2013-02-13 11:21:00,81.0,72.0,29.97,South,180,3.0,7.0,75,0.00,,,0.00,,2013-02-13 17:21:00,
2013-02-13 11:32:00,82.0,72.0,29.95,South,180,5.0,8.0,72,0.00,,,0.00,,2013-02-13 17:32:00,
2013-02-13 11:42:00,82.0,72.0,29.95,South,180,5.0,8.0,72,0.00,,,0.00,,2013-02-13 17:42:00,
2013-02-13 11:52:00,82.0,72.0,29.95,SSW,212,4.0,6.0,73,0.00,,,0.00,,2013-02-13 17:52:00,
2013-02-13 12:02:00,83.0,73.0,29.94,SSW,203,3.0,4.0,73,0.00,,,0.00,,2013-02-13 18:02:00,
2013-02-13 12:11:00,83.0,73.0,29.93,South,177,4.0,7.0,72,0.00,,,0.00,,2013-02-13 18:11:00,
2013-02-13 12:23:00,83.0,73.0,29.93,South,177,4.0,7.0,72,0.00,,,0.00,,2013-02-13 18:23:00,
2013-02-13 12:32:00,83.0,73.0,29.93,South,180,4.0,4.0,71,0.00,,,0.00,,2013-02-13 18:32:00,
2013-02-13 12:42:00,83.0,73.0,29.93,South,180,4.0,4.0,71,0.00,,,0.00,,2013-02-13 18:42:00,
2013-02-13 12:52:00,83.0,72.0,29.92,SSE,163,4.0,6.0,70,0.00,,,0.00,,2013-02-13 18:52:00,
2013-02-13 13:01:00,83.0,72.0,29.91,South,180,2.0,3.0,69,0.00,,,0.00,,2013-02-13 19:01:00,
2013-02-13 13:11:00,83.0,71.0,29.91,South,180,6.0,9.0,68,0.00,,,0.00,,2013-02-13 19:11:00,
2013-02-13 13:21:00,83.0,71.0,29.91,South,180,6.0,9.0,68,0.00,,,0.00,,2013-02-13 19:21:00,
2013-02-13 13:32:00,83.0,71.0,29.90,South,180,6.0,10.0,68,0.00,,,0.00,,2013-02-13 19:32:00,
2013-02-13 13:42:00,83.0,71.0,29.90,South,180,6.0,10.0,68,0.00,,,0.00,,2013-02-13 19:42:00,
2013-02-13 13:51:00,83.0,72.0,29.90,South,180,4.0,6.0,69,0.00,,,0.00,,2013-02-13 19:51:00,
2013-02-13 14:02:00,82.0,71.0,29.89,SSE,167,7.0,8.0,70,0.00,,,0.00,,2013-02-13 20:02:00,
2013-02-13 14:11:00,83.0,72.0,29.89,SW,218,5.0,10.0,70,0.00,,,0.00,,2013-02-13 20:11:00,
2013-02-13 14:21:00,83.0,72.0,29.89,SW,218,5.0,10.0,70,0.00,,,0.00,,2013-02-13 20:21:00,
2013-02-13 14:32:00,83.0,73.0,29.89,WSW,243,2.0,7.0,71,0.00,,,0.00,,2013-02-13 20:32:00,
2013-02-13 14:42:00,83.0,73.0,29.89,SW,225,7.0,8.0,71,0.00,,,0.00,,2013-02-13 20:42:00,
2013-02-13 14:52:00,83.0,73.0,29.89,SW,225,7.0,8.0,71,0.00,,,0.00,,2013-02-13 20:52:00,
2013-02-13 15:02:00,83.0,73.0,29.89,SSW,213,7.0,7.0,71,0.00,,,0.00,,2013-02-13 21:02:00,
2013-02-13 15:11:00,83.0,73.0,29.89,SSW,213,7.0,7.0,71,0.00,,,0.00,,2013-02-13 21:11:00,
2013-02-13 15:21:00,83.0,73.0,29.89,SSW,208,3.0,5.0,72,0.00,,,0.00,,2013-02-13 21:21:00,
2013-02-13 15:32:00,83.0,73.0,29.89,WSW,237,2.0,4.0,71,0.00,,,0.00,,2013-02-13 21:32:00,
2013-02-13 15:42:00,84.0,74.0,29.90,SSW,212,2.0,5.0,71,0.00,,,0.00,,2013-02-13 21:42:00,
2013-02-13 15:52:00,84.0,74.0,29.90,SSW,212,2.0,5.0,71,0.00,,,0.00,,2013-02-13 21:52:00,
2013-02-13 16:02:00,83.0,73.0,29.90,SSW,203,4.0,7.0,71,0.00,,,0.00,,2013-02-13 22:02:00,
2013-02-13 16:11:00,82.0,72.0,29.89,SW,233,4.0,6.0,73,0.00,,,0.00,,2013-02-13 22:11:00,
2013-02-13 16:21:00,82.0,72.0,29.89,SW,233,4.0,6.0,73,0.00,,,0.00,,2013-02-13 22:21:00,
2013-02-13 16:31:00,82.0,72.0,29.90,SSW,213,5.0,5.0,72,0.00,,,0.00,,2013-02-13 22:31:00,
2013-02-13 16:42:00,82.0,72.0,29.90,SSW,213,5.0,5.0,72,0.00,,,0.00,,2013-02-13 22:42:00,
2013-02-13 16:52:00,82.0,72.0,29.90,SW,216,1.0,6.0,72,0.00,,,0.00,,2013-02-13 22:52:00,
2013-02-13 17:01:00,81.0,72.0,29.90,SSW,210,3.0,4.0,73,0.00,,,0.00,,2013-02-13 23:01:00,
2013-02-13 17:11:00,80.0,71.0,29.90,SSW,212,2.0,6.0,75,0.00,,,0.00,,2013-02-13 23:11:00,
2013-02-13 17:21:00,80.0,71.0,29.90,SSW,212,2.0,6.0,75,0.00,,,0.00,,2013-02-13 23:21:00,
2013-02-13 17:32:00,78.0,71.0,29.90,SSW,211,3.0,4.0,78,0.00,,,0.00,,2013-02-13 23:32:00,
2013-02-13 17:42:00,78.0,71.0,29.90,SSW,211,3.0,4.0,78,0.00,,,0.00,,2013-02-13 23:42:00,
2013-02-13 17:52:00,77.0,70.0,29.90,SW,233,1.0,2.0,78,0.00,,,0.00,,2013-02-13 23:52:00,
2013-02-13 18:02:00,75.0,68.0,29.90,SW,225,2.0,3.0,80,0.00,,,0.00,,2013-02-14 00:02:00,
2013-02-13 18:11:00,75.0,68.0,29.90,SW,225,2.0,3.0,80,0.00,,,0.00,,2013-02-14 00:11:00,
2013-02-13 18:22:00,75.0,69.0,29.90,SSW,203,1.0,2.0,81,0.00,,,0.00,,2013-02-14 00:22:00,
2013-02-13 18:32:00,74.0,68.0,29.89,SSW,207,1.0,2.0,82,0.00,,,0.00,,2013-02-14 00:32:00,
2013-02-13 18:42:00,74.0,68.0,29.89,SSW,207,1.0,2.0,82,0.00,,,0.00,,2013-02-14 00:42:00,
2013-02-13 18:52:00,74.0,68.0,29.89,SSW,208,1.0,2.0,82,0.00,,,0.00,,2013-02-14 00:52:00,
2013-02-13 19:01:00,73.0,68.0,29.91,SW,225,1.0,1.0,83,0.00,,,0.00,,2013-02-14 01:01:00,
2013-02-13 19:11:00,73.0,68.0,29.91,SW,218,0.0,2.0,83,0.00,,,0.00,,2013-02-14 01:11:00,
2013-02-13 19:21:00,73.0,68.0,29.91,SW,218,0.0,2.0,83,0.00,,,0.00,,2013-02-14 01:21:00,
2013-02-13 19:32:00,73.0,68.0,29.91,SSW,206,1.0,2.0,83,0.00,,,0.00,,2013-02-14 01:32:00,
2013-02-13 19:41:00,73.0,68.0,29.91,SSW,206,1.0,2.0,83,0.00,,,0.00,,2013-02-14 01:41:00,
2013-02-13 19:51:00,73.0,68.0,29.91,SSW,203,0.0,1.0,83,0.00,,,0.00,,2013-02-14 01:51:00,
2013-02-13 20:02:00,72.0,67.0,29.92,SW,225,2.0,2.0,83,0.00,,,0.00,,2013-02-14 02:02:00,
2013-02-13 20:11:00,72.0,67.0,29.92,SSW,203,0.0,1.0,84,0.00,,,0.00,,2013-02-14 02:11:00,
2013-02-13 20:21:00,72.0,67.0,29.92,SSW,203,0.0,1.0,84,0.00,,,0.00,,2013-02-14 02:21:00,
2013-02-13 20:32:00,72.0,67.0,29.92,SW,225,0.0,0.0,84,0.00,,,0.00,,2013-02-14 02:32:00,
2013-02-13 20:41:00,72.0,67.0,29.92,SW,225,0.0,0.0,84,0.00,,,0.00,,2013-02-14 02:41:00,
2013-02-13 20:51:00,72.0,67.0,29.92,SW,225,0.0,0.0,84,0.00,,,0.00,,2013-02-14 02:51:00,
2013-02-13 21:02:00,72.0,67.0,29.93,SW,225,0.0,0.0,84,0.00,,,0.00,,2013-02-14 03:02:00,
2013-02-13 21:11:00,72.0,67.0,29.94,SW,225,0.0,0.0,84,0.00,,,0.00,,2013-02-14 03:11:00,
2013-02-13 21:22:00,72.0,67.0,29.94,SW,225,0.0,0.0,84,0.00,,,0.00,,2013-02-14 03:22:00,
2013-02-13 21:31:00,71.0,66.0,29.94,SW,225,0.0,0.0,84,0.00,,,0.00,,2013-02-14 03:31:00,
2013-02-13 21:42:00,71.0,66.0,29.94,SW,225,0.0,0.0,84,0.00,,,0.00,,2013-02-14 03:42:00,
2013-02-13 21:52:00,71.0,66.0,29.93,SSW,203,0.0,0.0,84,0.00,,,0.00,,2013-02-14 03:52:00,
2013-02-13 22:01:00,71.0,66.0,29.94,SSW,203,0.0,1.0,84,0.00,,,0.00,,2013-02-14 04:01:00,
2013-02-13 22:12:00,71.0,66.0,29.92,SSW,203,1.0,2.0,85,0.00,,,0.00,,2013-02-14 04:12:00,
2013-02-13 22:21:00,71.0,66.0,29.92,SSW,203,1.0,2.0,85,0.00,,,0.00,,2013-02-14 04:21:00,
2013-02-13 22:32:00,71.0,66.0,29.93,SSW,203,0.0,0.0,85,0.00,,,0.00,,2013-02-14 04:32:00,
2013-02-13 22:42:00,71.0,66.0,29.93,SSW,203,0.0,0.0,85,0.00,,,0.00,,2013-02-14 04:42:00,
2013-02-13 22:52:00,71.0,66.0,29.93,SSW,203,0.0,1.0,85,0.00,,,0.00,,2013-02-14 04:52:00,
2013-02-13 23:02:00,71.0,66.0,29.93,SSW,203,1.0,2.0,85,0.00,,,0.00,,2013-02-14 05:02:00,
2013-02-13 23:11:00,71.0,66.0,29.93,SSW,203,1.0,2.0,85,0.00,,,0.00,,2013-02-14 05:11:00,
2013-02-13 23:22:00,72.0,67.0,29.93,SSW,211,0.0,0.0,85,0.00,,,0.00,,2013-02-14 05:22:00,
2013-02-13 23:32:00,72.0,67.0,29.92,SW,225,0.0,1.0,85,0.00,,,0.00,,2013-02-14 05:32:00,
2013-02-13 23:42:00,72.0,67.0,29.92,SW,225,0.0,1.0,85,0.00,,,0.00,,2013-02-14 05:42:00,
2013-02-13 23:52:00,72.0,67.0,29.92,SSW,203,0.0,1.0,85,0.00,,,0.00,,2013-02-14 05:52:00,